createdAt,value
2023-01-25T01:56:51.271Z,0.50
2023-01-25T02:01:49.576Z,0.50
2023-01-25T02:06:56.151Z,0.50
2023-01-25T02:26:36.616Z,0.50
2023-01-25T02:32:01.913Z,0.50
2023-01-25T02:36:49.607Z,0.50
2023-01-25T02:42:08.940Z,0.40
2023-01-25T02:46:53.395Z,0.40
2023-01-25T02:52:15.399Z,0.60
2023-01-25T02:57:18.070Z,0.40
2023-01-25T03:07:46.731Z,0.40
2023-01-25T03:22:24.550Z,0.50
2023-01-25T03:26:04.568Z,0.50
2023-01-25T03:31:28.017Z,0.40
2023-01-25T03:36:32.193Z,0.30
2023-01-25T03:46:50.511Z,0.40
2023-01-25T03:57:18.212Z,0.40
2023-01-25T04:03:31.411Z,0.40
2023-01-25T04:09:17.143Z,0.30
2023-01-25T04:20:10.753Z,0.40
2023-01-25T04:25:51.728Z,0.30
2023-01-25T04:36:28.082Z,0.40
2023-01-25T04:42:38.669Z,0.40
2023-01-25T04:47:31.492Z,0.40
2023-01-25T04:58:54.021Z,0.40
2023-01-25T05:04:18.351Z,0.50
2023-01-25T05:10:04.567Z,0.40
2023-01-25T05:21:33.799Z,0.40
2023-01-25T05:33:20.253Z,0.40
2023-01-25T05:38:06.597Z,0.40
2023-01-25T05:43:08.513Z,0.40
2023-01-25T05:48:02.859Z,0.30
2023-01-25T05:52:47.713Z,0.40
2023-01-25T05:57:38.462Z,0.30
2023-01-25T06:02:38.552Z,0.30
2023-01-25T06:07:26.148Z,0.30
2023-01-25T06:12:29.593Z,0.20
2023-01-25T06:17:31.671Z,0.20
2023-01-25T06:22:38.073Z,0.30
2023-01-25T06:32:46.336Z,0.20
2023-01-25T06:37:33.365Z,0.30
2023-01-25T06:42:43.976Z,0.30
2023-01-25T06:47:41.431Z,0.30
2023-01-25T06:59:12.346Z,0.30
2023-01-25T07:04:04.113Z,0.20
2023-01-25T07:09:04.242Z,0.20
2023-01-25T07:13:55.604Z,0.20
2023-01-25T07:19:11.730Z,0.20
2023-01-25T07:24:10.276Z,0.20
2023-01-25T07:29:05.495Z,0.20
2023-01-25T07:33:50.757Z,0.20
2023-01-25T07:39:23.592Z,0.20
2023-01-25T07:44:47.464Z,0.20
2023-01-25T07:49:33.620Z,0.30
2023-01-25T07:54:34.463Z,0.30
2023-01-25T07:59:58.139Z,0.30
2023-01-25T08:06:03.942Z,0.30
2023-01-25T08:11:30.623Z,0.30
2023-01-25T08:16:29.533Z,0.30
2023-01-25T08:21:21.168Z,0.30
2023-01-25T08:26:42.556Z,0.30
2023-01-25T08:31:58.840Z,0.40
2023-01-25T08:37:05.113Z,0.50
2023-01-25T08:41:49.541Z,0.60
2023-01-25T08:46:40.938Z,0.60
2023-01-25T08:51:26.540Z,0.50
2023-01-25T08:56:27.498Z,0.60
2023-01-25T09:01:21.804Z,0.60
2023-01-25T09:06:06.783Z,0.70
2023-01-25T09:10:55.341Z,0.70
2023-01-25T09:15:53.987Z,0.80
2023-01-25T09:20:47.687Z,0.70
2023-01-25T09:25:49.520Z,0.70
2023-01-25T09:31:18.613Z,0.70
2023-01-25T09:36:50.413Z,0.80
2023-01-25T09:53:22.067Z,0.90
2023-01-25T10:04:33.639Z,0.90
2023-01-25T10:10:10.427Z,0.90
2023-01-25T10:15:47.671Z,1.00
2023-01-25T10:20:46.191Z,1.10
2023-01-25T10:25:51.008Z,1.20
2023-01-25T10:36:32.776Z,1.10
2023-01-25T10:47:30.656Z,1.40
2023-01-25T10:53:34.273Z,1.20
2023-01-25T10:58:52.751Z,1.50
2023-01-25T11:04:03.059Z,1.40
2023-01-25T11:08:47.255Z,1.40
2023-01-25T11:27:58.953Z,1.60
2023-01-25T11:33:07.078Z,1.70
2023-01-25T11:44:44.640Z,1.80
2023-01-25T12:02:52.257Z,1.40
2023-01-25T13:52:15.882Z,1.60
2023-01-25T13:57:18.210Z,1.70
2023-01-25T14:02:08.183Z,1.60
2023-01-25T14:07:27.619Z,1.60
2023-01-25T14:12:30.424Z,1.60
2023-01-25T14:17:54.352Z,1.50
2023-01-25T14:23:32.052Z,1.50
2023-01-25T14:29:02.500Z,1.40
2023-01-25T14:33:54.914Z,1.40
2023-01-25T14:38:40.796Z,1.30
2023-01-25T14:43:27.008Z,1.20
2023-01-25T14:48:47.232Z,1.20
2023-01-25T14:53:32.862Z,1.20
2023-01-25T14:58:24.302Z,1.00
2023-01-25T15:03:26.841Z,1.00
2023-01-25T15:08:27.960Z,0.90
2023-01-25T15:13:23.436Z,0.90
2023-01-25T15:18:07.513Z,0.80
2023-01-25T15:22:54.875Z,0.70
2023-01-25T15:27:42.067Z,0.70
2023-01-25T15:32:28.429Z,0.70
2023-01-25T15:37:17.695Z,0.60
2023-01-25T15:42:04.628Z,0.50
2023-01-25T15:47:14.805Z,0.50
2023-01-25T15:51:58.834Z,0.50
2023-01-25T15:56:48.653Z,0.60
2023-01-25T16:01:35.315Z,0.50
2023-01-25T16:06:40.681Z,0.60
2023-01-25T16:11:24.569Z,0.50
2023-01-25T16:16:20.090Z,0.60
2023-01-25T16:21:16.986Z,0.60
2023-01-25T16:26:24.877Z,0.60
2023-01-25T16:31:19.480Z,0.60
2023-01-25T16:36:34.438Z,0.60
2023-01-25T16:41:22.671Z,0.60
2023-01-25T16:46:07.908Z,0.60
2023-01-25T16:50:54.911Z,0.70
2023-01-25T16:55:40.405Z,0.60
2023-01-25T17:00:33.114Z,0.60
2023-01-25T17:05:18.174Z,0.60
2023-01-25T17:10:08.681Z,0.70
2023-01-25T17:14:52.657Z,0.70
2023-01-25T17:19:40.591Z,0.70
2023-01-25T17:24:36.053Z,0.70
2023-01-25T17:29:32.800Z,0.60
2023-01-25T17:34:26.047Z,0.60
2023-01-25T17:44:44.937Z,0.50
2023-01-25T17:49:34.360Z,0.50
2023-01-25T17:54:20.926Z,0.50
2023-01-25T17:59:15.103Z,0.50
2023-01-25T18:03:58.847Z,0.50
2023-01-25T18:08:48.253Z,0.50
2023-01-25T18:13:32.742Z,0.50
2023-01-25T18:18:21.115Z,0.50
2023-01-25T18:23:08.617Z,0.60
2023-01-25T18:28:01.397Z,0.60
2023-01-25T18:32:45.059Z,0.70
2023-01-25T18:37:39.537Z,0.70
2023-01-25T18:42:25.009Z,0.50
2023-01-25T18:47:10.358Z,0.50
2023-01-25T18:52:10.780Z,0.50
2023-01-25T18:57:07.750Z,0.50
2023-01-25T19:01:51.563Z,0.50
2023-01-25T19:06:37.090Z,0.60
2023-01-25T19:11:29.589Z,0.40
2023-01-25T19:16:16.040Z,0.50
2023-01-25T19:21:02.111Z,0.40
2023-01-25T19:25:54.648Z,0.40
2023-01-25T19:30:38.932Z,0.40
2023-01-25T19:35:27.117Z,0.40
2023-01-25T19:40:15.757Z,0.30
2023-01-25T19:45:03.650Z,0.30
2023-01-25T19:49:49.131Z,0.40
2023-01-25T19:54:40.340Z,0.30
2023-01-25T19:59:27.771Z,0.30
2023-01-25T20:04:16.811Z,0.40
2023-01-25T20:09:00.421Z,0.30
2023-01-25T20:13:52.710Z,0.30
2023-01-25T20:18:36.927Z,0.30
2023-01-25T20:23:39.529Z,0.40
2023-01-25T20:28:33.181Z,0.40
2023-01-25T20:33:18.383Z,0.30
2023-01-25T20:38:05.926Z,0.40
2023-01-25T20:42:57.591Z,0.30
2023-01-25T20:47:41.241Z,0.30
2023-01-25T20:52:29.102Z,0.30
2023-01-25T20:57:17.489Z,0.30
2023-01-25T21:02:05.957Z,0.30
2023-01-25T21:06:52.597Z,0.30
2023-01-25T21:11:41.165Z,0.30
2023-01-25T21:16:31.202Z,0.30
2023-01-25T21:21:21.005Z,0.30
2023-01-25T21:26:07.010Z,0.40
2023-01-25T21:30:59.046Z,0.30
2023-01-25T21:35:42.733Z,0.30
2023-01-25T21:40:30.522Z,0.40
2023-01-25T21:45:39.521Z,0.40
2023-01-25T21:51:24.203Z,0.40
2023-01-25T21:56:13.952Z,0.50
2023-01-25T22:01:04.753Z,0.40
2023-01-25T22:05:55.269Z,0.40
2023-01-25T22:10:40.345Z,0.30
2023-01-25T22:15:26.949Z,0.30
2023-01-25T22:20:13.674Z,0.30
2023-01-25T22:25:00.377Z,0.30
2023-01-25T22:29:52.652Z,0.40
2023-01-25T22:34:38.112Z,0.40
2023-01-25T22:39:28.238Z,0.30
2023-01-25T22:44:14.545Z,0.30
2023-01-25T22:49:19.920Z,0.20
2023-01-25T22:54:05.580Z,0.30
2023-01-25T22:58:57.767Z,0.30
2023-01-25T23:03:41.596Z,0.30
2023-01-25T23:08:44.606Z,0.20
2023-01-25T23:13:37.855Z,0.30
2023-01-25T23:18:39.186Z,0.20
2023-01-25T23:23:25.600Z,0.20
2023-01-25T23:28:12.723Z,0.30
2023-01-25T23:33:00.711Z,0.20
2023-01-25T23:37:49.117Z,0.20
2023-01-25T23:42:38.767Z,0.20
2023-01-25T23:47:28.929Z,0.20
2023-01-25T23:52:13.792Z,0.10
2023-01-25T23:57:00.699Z,0.10
